createdAt,value
2022-10-06T00:01:12.787Z,73.13
2022-10-06T00:03:44.198Z,72.32
2022-10-06T00:06:16.848Z,73.35
2022-10-06T00:08:46.078Z,72.65
2022-10-06T00:11:15.321Z,73.03
2022-10-06T00:13:44.168Z,73.78
2022-10-06T00:16:17.757Z,74.17
2022-10-06T00:18:46.356Z,74.30
2022-10-06T00:21:14.837Z,75.14
2022-10-06T00:23:43.534Z,74.90
2022-10-06T00:26:17.387Z,75.46
2022-10-06T00:28:49.494Z,75.83
2022-10-06T00:31:20.056Z,76.08
2022-10-06T00:33:49.840Z,76.06
2022-10-06T00:36:18.221Z,75.85
2022-10-06T00:38:46.601Z,76.07
2022-10-06T00:41:15.991Z,75.60
2022-10-06T00:43:47.765Z,75.67
2022-10-06T00:46:17.210Z,76.10
2022-10-06T00:48:46.923Z,76.16
2022-10-06T00:51:15.462Z,76.18
2022-10-06T00:53:43.960Z,76.55
2022-10-06T00:56:12.548Z,76.42
2022-10-06T00:58:41.011Z,76.34
2022-10-06T01:01:11.759Z,76.72
2022-10-06T01:03:46.166Z,76.88
2022-10-06T01:06:15.160Z,77.11
2022-10-06T01:08:43.622Z,76.95
2022-10-06T01:11:15.627Z,77.32
2022-10-06T01:13:45.113Z,77.34
2022-10-06T01:16:18.977Z,77.29
2022-10-06T01:18:49.173Z,77.24
2022-10-06T01:21:20.284Z,77.47
2022-10-06T01:23:50.201Z,77.25
2022-10-06T01:26:20.292Z,77.42
2022-10-06T01:28:48.778Z,77.05
2022-10-06T01:31:18.088Z,77.60
2022-10-06T01:33:51.296Z,77.64
2022-10-06T01:36:20.391Z,77.69
2022-10-06T01:38:50.615Z,76.57
2022-10-06T01:41:20.096Z,76.32
2022-10-06T01:43:48.711Z,77.03
2022-10-06T01:46:17.131Z,77.48
2022-10-06T01:48:45.771Z,77.35
2022-10-06T01:51:16.506Z,78.03
2022-10-06T01:53:44.988Z,78.19
2022-10-06T01:56:14.288Z,78.60
2022-10-06T01:58:43.488Z,79.19
2022-10-06T02:01:12.703Z,78.61
2022-10-06T02:03:41.476Z,78.90
2022-10-06T02:06:10.712Z,78.20
2022-10-06T02:08:39.565Z,78.04
2022-10-06T02:11:09.524Z,78.19
2022-10-06T02:13:42.469Z,77.92
2022-10-06T02:16:12.807Z,78.18
2022-10-06T02:18:42.609Z,77.74
2022-10-06T02:21:18.206Z,78.24
2022-10-06T02:23:46.432Z,77.62
2022-10-06T02:26:19.931Z,78.75
2022-10-06T02:28:50.242Z,78.68
2022-10-06T02:31:21.831Z,79.23
2022-10-06T02:33:50.189Z,79.74
2022-10-06T02:36:19.160Z,79.53
2022-10-06T02:38:47.757Z,80.45
2022-10-06T02:41:16.044Z,80.22
2022-10-06T02:43:44.320Z,80.38
2022-10-06T02:46:13.969Z,80.66
2022-10-06T02:48:47.430Z,81.06
2022-10-06T02:51:19.682Z,81.50
2022-10-06T02:53:48.900Z,82.03
2022-10-06T02:56:20.660Z,81.93
2022-10-06T02:58:50.063Z,82.04
2022-10-06T03:01:30.479Z,82.37
2022-10-06T03:04:01.266Z,82.74
2022-10-06T03:06:31.481Z,82.65
2022-10-06T03:09:11.671Z,82.81
2022-10-06T03:11:42.983Z,82.99
2022-10-06T03:14:19.091Z,83.06
2022-10-06T03:16:55.116Z,82.19
2022-10-06T03:19:28.201Z,82.52
2022-10-06T03:21:56.679Z,82.29
2022-10-06T03:24:31.980Z,81.72
2022-10-06T03:27:00.912Z,81.01
2022-10-06T03:29:31.445Z,81.02
2022-10-06T03:32:00.232Z,81.75
2022-10-06T03:34:29.941Z,81.39
2022-10-06T03:36:58.941Z,81.42
2022-10-06T03:39:28.036Z,81.62
2022-10-06T03:41:57.209Z,82.02
2022-10-06T03:44:25.508Z,82.09
2022-10-06T03:46:54.211Z,81.89
2022-10-06T03:49:23.187Z,82.21
2022-10-06T03:51:51.566Z,82.47
2022-10-06T03:54:23.634Z,82.86
2022-10-06T03:56:53.747Z,83.05
2022-10-06T03:59:21.976Z,83.07
2022-10-06T04:01:53.291Z,83.02
2022-10-06T04:04:28.836Z,83.73
2022-10-06T04:07:07.546Z,83.72
2022-10-06T04:09:36.990Z,83.41
2022-10-06T04:12:05.330Z,83.86
2022-10-06T04:14:36.142Z,83.82
2022-10-06T04:17:05.471Z,83.99
2022-10-06T04:19:37.330Z,83.95
2022-10-06T04:22:05.610Z,84.12
2022-10-06T04:24:35.350Z,84.11
2022-10-06T04:27:22.959Z,84.21
2022-10-06T04:29:56.653Z,84.41
2022-10-06T04:32:25.749Z,84.39
2022-10-06T04:34:54.333Z,84.29
2022-10-06T04:37:23.841Z,84.41
2022-10-06T04:39:52.424Z,84.43
2022-10-06T04:42:20.605Z,84.41
2022-10-06T04:44:49.080Z,84.03
2022-10-06T04:47:17.872Z,84.07
2022-10-06T04:49:46.349Z,83.76
2022-10-06T04:52:14.915Z,83.79
2022-10-06T04:54:43.828Z,83.30
2022-10-06T04:57:12.309Z,83.12
2022-10-06T05:00:05.313Z,82.85
2022-10-06T05:02:37.286Z,82.51
2022-10-06T05:05:08.243Z,82.31
2022-10-06T05:07:36.760Z,81.70
2022-10-06T05:10:05.644Z,81.59
2022-10-06T05:12:34.535Z,81.37
2022-10-06T05:15:02.760Z,81.00
2022-10-06T05:17:31.296Z,80.29
2022-10-06T05:20:00.597Z,80.25
2022-10-06T05:22:28.874Z,79.80
2022-10-06T05:24:57.252Z,79.60
2022-10-06T05:27:25.838Z,78.91
2022-10-06T05:29:54.351Z,78.61
2022-10-06T05:32:22.904Z,78.61
2022-10-06T05:34:51.182Z,77.87
2022-10-06T05:37:19.692Z,77.68
2022-10-06T05:39:48.554Z,77.33
2022-10-06T05:42:17.652Z,76.91
2022-10-06T05:44:46.543Z,76.10
2022-10-06T05:47:16.764Z,76.10
2022-10-06T05:49:45.861Z,75.88
2022-10-06T05:52:14.076Z,75.57
2022-10-06T05:54:43.133Z,74.18
2022-10-06T05:57:12.024Z,74.53
2022-10-06T05:59:40.404Z,74.72
2022-10-06T06:02:09.519Z,74.09
2022-10-06T06:04:40.543Z,73.55
2022-10-06T06:07:09.444Z,73.53
2022-10-06T06:09:38.530Z,73.20
2022-10-06T06:12:07.561Z,73.23
2022-10-06T06:15:13.155Z,73.08
2022-10-06T06:17:46.883Z,72.17
2022-10-06T06:20:15.570Z,72.05
2022-10-06T06:22:43.953Z,71.47
2022-10-06T06:25:13.562Z,71.03
2022-10-06T06:27:43.987Z,71.15
2022-10-06T06:30:13.016Z,70.15
2022-10-06T06:32:41.873Z,69.22
2022-10-06T06:35:11.815Z,69.20
2022-10-06T06:37:40.172Z,67.88
2022-10-06T06:40:08.828Z,67.02
2022-10-06T06:42:39.461Z,65.97
2022-10-06T06:45:34.493Z,65.10
2022-10-06T06:48:17.722Z,65.53
2022-10-06T06:50:55.685Z,64.18
2022-10-06T06:53:24.823Z,64.08
2022-10-06T06:55:54.869Z,63.58
2022-10-06T06:58:24.143Z,63.40
2022-10-06T07:00:52.871Z,62.82
2022-10-06T07:03:52.185Z,63.03
2022-10-06T07:06:11.606Z,62.53
2022-10-06T07:08:44.420Z,62.15
2022-10-06T07:11:14.329Z,61.01
2022-10-06T07:13:43.505Z,60.13
2022-10-06T07:16:34.617Z,58.82
2022-10-06T07:19:24.769Z,59.21
2022-10-06T07:22:17.977Z,58.82
2022-10-06T07:25:05.499Z,57.20
2022-10-06T07:27:38.055Z,55.64
2022-10-06T07:30:06.662Z,54.41
2022-10-06T07:32:34.940Z,55.07
2022-10-06T07:35:04.856Z,53.21
2022-10-06T07:37:36.925Z,52.93
2022-10-06T07:40:06.942Z,53.22
2022-10-06T07:42:48.497Z,52.31
2022-10-06T07:45:39.330Z,51.73
2022-10-06T07:48:18.468Z,50.10
2022-10-06T07:50:50.678Z,49.82
2022-10-06T07:53:27.726Z,49.87
2022-10-06T07:56:09.620Z,48.08
2022-10-06T07:58:45.073Z,47.72
2022-10-06T08:01:14.887Z,48.08
2022-10-06T08:03:43.985Z,47.92
2022-10-06T08:06:16.348Z,46.53
2022-10-06T08:08:48.063Z,46.06
2022-10-06T08:11:21.506Z,45.90
2022-10-06T08:13:52.169Z,45.60
2022-10-06T08:16:22.995Z,44.57
2022-10-06T08:18:55.149Z,44.35
2022-10-06T08:21:26.600Z,44.22
2022-10-06T08:23:56.947Z,43.68
2022-10-06T08:26:26.603Z,43.64
2022-10-06T08:28:57.986Z,44.27
2022-10-06T08:31:26.797Z,43.00
2022-10-06T08:33:56.933Z,42.67
2022-10-06T08:36:30.941Z,41.83
2022-10-06T08:39:00.724Z,42.30
2022-10-06T08:41:32.973Z,42.06
2022-10-06T08:44:16.860Z,42.02
2022-10-06T08:46:50.953Z,40.87
2022-10-06T08:49:20.770Z,40.51
2022-10-06T08:52:10.549Z,39.67
2022-10-06T08:54:47.428Z,39.70
2022-10-06T08:57:35.266Z,40.11
2022-10-06T09:00:08.754Z,39.43
2022-10-06T09:02:39.577Z,39.53
2022-10-06T09:05:09.007Z,39.47
2022-10-06T09:07:44.144Z,39.58
2022-10-06T09:10:31.161Z,39.14
2022-10-06T09:13:21.716Z,39.30
2022-10-06T09:15:53.477Z,38.47
2022-10-06T09:18:56.002Z,38.37
2022-10-06T09:21:24.521Z,37.48
2022-10-06T09:23:54.284Z,37.75
2022-10-06T09:26:24.136Z,37.22
2022-10-06T09:28:52.928Z,36.94
2022-10-06T09:31:32.598Z,36.92
2022-10-06T09:34:05.766Z,36.85
2022-10-06T09:36:57.698Z,36.57
2022-10-06T09:39:33.017Z,36.43
2022-10-06T09:42:03.960Z,35.77
2022-10-06T09:44:52.730Z,36.73
2022-10-06T09:47:36.663Z,36.06
2022-10-06T09:50:22.046Z,35.75
2022-10-06T09:53:00.887Z,35.57
2022-10-06T09:55:34.142Z,35.20
2022-10-06T09:58:02.952Z,34.79
2022-10-06T10:00:33.270Z,34.89
2022-10-06T10:03:01.834Z,34.65
2022-10-06T10:05:32.905Z,34.62
2022-10-06T10:08:19.355Z,34.39
2022-10-06T10:10:48.608Z,33.86
2022-10-06T10:13:26.912Z,33.30
2022-10-06T10:16:03.330Z,33.14
2022-10-06T10:18:32.387Z,33.61
2022-10-06T10:21:05.377Z,33.93
2022-10-06T10:23:39.250Z,32.52
2022-10-06T10:26:19.645Z,32.73
2022-10-06T10:29:03.593Z,33.06
2022-10-06T10:31:44.270Z,33.21
2022-10-06T10:34:25.199Z,32.97
2022-10-06T10:36:56.420Z,33.46
2022-10-06T10:39:37.974Z,33.40
2022-10-06T10:42:14.235Z,33.29
2022-10-06T10:44:48.043Z,33.59
2022-10-06T10:47:31.000Z,33.40
2022-10-06T10:50:19.723Z,33.29
2022-10-06T10:52:50.767Z,33.04
2022-10-06T10:55:30.561Z,33.00
2022-10-06T10:58:00.308Z,32.54
2022-10-06T11:00:31.025Z,32.09
2022-10-06T11:03:01.592Z,32.54
2022-10-06T11:05:52.092Z,31.81
2022-10-06T11:08:25.285Z,31.92
2022-10-06T11:10:59.071Z,31.51
2022-10-06T11:13:39.047Z,31.04
2022-10-06T11:16:19.848Z,30.77
2022-10-06T11:18:51.370Z,30.71
2022-10-06T11:21:26.099Z,29.77
2022-10-06T11:24:20.694Z,29.29
2022-10-06T11:27:08.425Z,30.20
2022-10-06T11:29:36.808Z,29.98
2022-10-06T11:32:17.868Z,29.53
2022-10-06T11:34:48.527Z,29.34
2022-10-06T11:37:23.045Z,28.87
2022-10-06T11:39:57.994Z,28.92
2022-10-06T11:42:42.747Z,28.48
2022-10-06T11:45:14.098Z,29.60
2022-10-06T11:47:56.606Z,28.60
2022-10-06T11:50:33.527Z,29.77
2022-10-06T11:53:02.274Z,29.42
2022-10-06T11:55:30.756Z,29.01
2022-10-06T12:01:02.642Z,28.16
2022-10-06T12:03:33.991Z,28.19
2022-10-06T12:06:03.600Z,28.46
2022-10-06T12:08:39.475Z,28.34
2022-10-06T12:11:27.292Z,28.58
2022-10-06T12:17:15.415Z,28.78
2022-10-06T12:19:46.645Z,27.87
2022-10-06T12:22:18.466Z,27.07
2022-10-06T12:24:53.198Z,26.98
2022-10-06T12:27:30.690Z,27.45
2022-10-06T12:30:02.697Z,27.32
2022-10-06T12:32:40.659Z,26.38
2022-10-06T12:35:10.165Z,26.37
2022-10-06T12:37:43.564Z,26.66
2022-10-06T12:40:31.301Z,25.58
2022-10-06T12:43:18.624Z,24.57
2022-10-06T12:45:47.175Z,24.58
2022-10-06T12:48:18.661Z,24.04
2022-10-06T12:50:48.953Z,24.43
2022-10-06T12:53:21.177Z,25.30
2022-10-06T12:55:52.016Z,24.68
2022-10-06T12:58:30.429Z,24.29
2022-10-06T13:01:22.161Z,23.58
2022-10-06T13:03:52.003Z,22.74
2022-10-06T13:06:24.737Z,20.96
2022-10-06T13:09:07.472Z,21.29
2022-10-06T13:11:35.936Z,21.13
2022-10-06T13:14:13.435Z,20.58
2022-10-06T13:16:46.547Z,19.79
2022-10-06T13:19:17.363Z,18.33
2022-10-06T13:21:46.820Z,17.74
2022-10-06T13:24:19.647Z,18.13
2022-10-06T13:26:48.749Z,18.42
2022-10-06T13:29:21.637Z,18.11
2022-10-06T13:31:52.946Z,17.77
2022-10-06T13:34:34.964Z,16.63
2022-10-06T13:37:03.813Z,17.28
2022-10-06T13:39:32.381Z,17.07
2022-10-06T13:42:11.284Z,17.13
2022-10-06T13:44:39.868Z,17.46
2022-10-06T13:47:16.133Z,17.06
2022-10-06T13:49:50.463Z,17.30
2022-10-06T13:52:36.679Z,17.76
2022-10-06T13:55:17.496Z,17.37
2022-10-06T13:57:51.723Z,17.46
2022-10-06T14:00:27.289Z,17.53
2022-10-06T14:02:57.782Z,16.92
2022-10-06T14:05:27.539Z,17.07
2022-10-06T14:07:58.268Z,16.96
2022-10-06T14:10:35.569Z,16.30
2022-10-06T14:13:06.587Z,17.06
2022-10-06T14:15:40.231Z,17.17
2022-10-06T14:18:17.661Z,16.91
2022-10-06T14:20:47.105Z,16.76
2022-10-06T14:23:35.143Z,17.08
2022-10-06T14:26:03.752Z,16.90
2022-10-06T14:28:32.299Z,16.69
2022-10-06T14:31:00.783Z,16.52
2022-10-06T14:33:29.589Z,16.82
2022-10-06T14:35:57.968Z,16.72
2022-10-06T14:38:26.380Z,16.82
2022-10-06T14:40:55.036Z,16.98
2022-10-06T14:43:23.621Z,17.08
2022-10-06T14:45:51.942Z,17.22
2022-10-06T14:48:20.460Z,16.96
2022-10-06T14:50:49.711Z,17.01
2022-10-06T14:53:18.064Z,18.06
2022-10-06T14:55:46.444Z,19.00
2022-10-06T14:58:15.211Z,19.61
2022-10-06T15:00:44.639Z,20.42
2022-10-06T15:03:13.136Z,21.54
2022-10-06T15:06:01.573Z,22.20
2022-10-06T15:08:32.512Z,23.07
2022-10-06T15:11:01.096Z,23.24
2022-10-06T15:13:32.358Z,23.71
2022-10-06T15:16:00.868Z,23.10
2022-10-06T15:18:29.415Z,23.27
2022-10-06T15:21:02.197Z,23.54
2022-10-06T15:23:30.988Z,24.37
2022-10-06T15:26:18.104Z,24.76
2022-10-06T15:29:01.865Z,25.45
2022-10-06T15:31:35.642Z,26.33
2022-10-06T15:34:05.406Z,27.12
2022-10-06T15:36:34.896Z,28.40
2022-10-06T15:39:05.301Z,29.01
2022-10-06T15:41:37.990Z,30.09
2022-10-06T15:44:06.976Z,31.03
2022-10-06T15:46:35.548Z,31.69
2022-10-06T15:49:04.048Z,32.88
2022-10-06T15:51:38.656Z,33.35
2022-10-06T15:54:07.461Z,34.18
2022-10-06T15:56:35.944Z,35.13
2022-10-06T15:59:05.140Z,35.77
2022-10-06T16:01:35.390Z,36.31
2022-10-06T16:04:12.242Z,36.79
2022-10-06T16:06:49.329Z,37.53
2022-10-06T16:09:19.345Z,38.29
2022-10-06T16:11:48.241Z,38.83
2022-10-06T16:14:17.313Z,39.19
2022-10-06T16:16:46.495Z,41.16
2022-10-06T16:19:16.247Z,40.34
2022-10-06T16:21:46.352Z,41.86
2022-10-06T16:24:15.576Z,42.45
2022-10-06T16:26:44.071Z,42.42
2022-10-06T16:29:12.941Z,42.81
2022-10-06T16:31:41.789Z,42.55
2022-10-06T16:34:10.928Z,43.01
2022-10-06T16:36:39.518Z,43.93
2022-10-06T16:39:13.014Z,44.99
2022-10-06T16:41:41.677Z,45.77
2022-10-06T16:44:10.388Z,46.29
2022-10-06T16:46:39.358Z,46.88
2022-10-06T16:49:09.377Z,46.81
2022-10-06T16:51:39.009Z,47.20
2022-10-06T16:54:08.926Z,47.51
2022-10-06T16:56:41.657Z,48.01
2022-10-06T16:59:13.042Z,48.09
2022-10-06T17:01:41.972Z,48.53
2022-10-06T17:04:13.129Z,48.77
2022-10-06T17:06:43.736Z,48.82
2022-10-06T17:09:14.517Z,49.54
2022-10-06T17:11:44.378Z,49.43
2022-10-06T17:14:13.172Z,49.92
2022-10-06T17:16:43.082Z,50.10
2022-10-06T17:19:12.388Z,50.66
2022-10-06T17:21:46.354Z,50.81
2022-10-06T17:24:18.164Z,51.04
2022-10-06T17:26:48.009Z,51.41
2022-10-06T17:29:21.659Z,52.25
2022-10-06T17:31:53.646Z,52.60
2022-10-06T17:34:22.970Z,52.32
2022-10-06T17:36:53.061Z,52.46
2022-10-06T17:39:22.468Z,53.39
2022-10-06T17:41:52.667Z,53.40
2022-10-06T17:44:26.218Z,52.98
2022-10-06T17:46:55.755Z,52.89
2022-10-06T17:49:25.101Z,53.89
2022-10-06T17:51:54.927Z,53.83
2022-10-06T17:54:24.484Z,53.08
2022-10-06T17:56:54.342Z,53.64
2022-10-06T17:59:24.288Z,53.58
2022-10-06T18:01:56.819Z,54.12
2022-10-06T18:04:26.710Z,54.22
2022-10-06T18:06:55.947Z,55.06
2022-10-06T18:09:24.632Z,55.16
2022-10-06T18:12:33.050Z,55.81
2022-10-06T18:15:01.633Z,56.20
2022-10-06T18:17:30.116Z,56.33
2022-10-06T18:19:58.598Z,55.85
2022-10-06T18:22:26.980Z,55.69
2022-10-06T18:24:59.206Z,55.69
2022-10-06T18:27:28.357Z,55.91
2022-10-06T18:29:57.032Z,56.67
2022-10-06T18:33:56.423Z,56.54
2022-10-06T18:38:02.622Z,57.40
2022-10-06T18:40:31.312Z,58.07
2022-10-06T18:43:00.618Z,58.71
2022-10-06T18:45:47.988Z,58.37
2022-10-06T18:48:35.156Z,58.17
2022-10-06T18:51:03.842Z,59.06
2022-10-06T18:53:33.567Z,58.97
2022-10-06T18:56:01.832Z,58.32
2022-10-06T18:58:30.312Z,58.18
2022-10-06T19:01:04.046Z,58.56
2022-10-06T19:03:32.914Z,58.46
2022-10-06T19:06:01.390Z,58.78
2022-10-06T19:08:29.686Z,58.89
2022-10-06T19:11:20.883Z,59.23
2022-10-06T19:13:52.164Z,59.94
2022-10-06T19:16:21.026Z,60.20
2022-10-06T19:18:49.815Z,59.26
2022-10-06T19:21:18.601Z,59.65
2022-10-06T19:23:47.210Z,60.15
2022-10-06T19:26:15.753Z,59.12
2022-10-06T19:28:44.170Z,58.94
2022-10-06T19:31:15.201Z,58.41
2022-10-06T19:33:44.068Z,58.11
2022-10-06T19:36:13.072Z,58.41
2022-10-06T19:38:42.686Z,58.43
2022-10-06T19:41:30.317Z,58.60
2022-10-06T19:43:59.006Z,58.21
2022-10-06T19:46:27.332Z,60.33
2022-10-06T19:48:56.993Z,60.18
2022-10-06T19:51:25.678Z,61.20
2022-10-06T19:53:54.059Z,62.15
2022-10-06T19:56:25.918Z,61.16
2022-10-06T19:58:54.478Z,60.92
2022-10-06T20:01:22.700Z,60.80
2022-10-06T20:03:51.493Z,60.98
2022-10-06T20:06:21.028Z,61.08
2022-10-06T20:08:50.071Z,61.34
2022-10-06T20:11:20.089Z,61.58
2022-10-06T20:13:48.984Z,61.92
2022-10-06T20:16:19.029Z,62.22
2022-10-06T20:18:50.882Z,62.25
2022-10-06T20:21:20.636Z,62.42
2022-10-06T20:23:50.388Z,62.13
2022-10-06T20:26:20.299Z,62.28
2022-10-06T20:28:49.216Z,62.65
2022-10-06T20:31:17.832Z,62.44
2022-10-06T20:33:46.850Z,62.11
2022-10-06T20:36:15.252Z,62.05
2022-10-06T20:39:02.781Z,62.49
2022-10-06T20:41:31.979Z,61.58
2022-10-06T20:44:01.179Z,61.84
2022-10-06T20:46:31.825Z,62.24
2022-10-06T20:49:03.761Z,61.86
2022-10-06T20:51:33.282Z,62.07
2022-10-06T20:54:04.403Z,62.19
2022-10-06T20:56:34.989Z,62.09
2022-10-06T20:59:04.460Z,63.28
2022-10-06T21:01:32.865Z,63.38
2022-10-06T21:04:02.242Z,63.52
2022-10-06T21:06:31.031Z,64.13
2022-10-06T21:09:00.332Z,64.41
2022-10-06T21:11:28.843Z,65.27
2022-10-06T21:13:57.605Z,66.59
2022-10-06T21:16:27.112Z,66.95
2022-10-06T21:18:55.594Z,66.67
2022-10-06T21:21:24.006Z,66.82
2022-10-06T21:23:52.351Z,66.77
2022-10-06T21:26:22.062Z,66.93
2022-10-06T21:28:53.517Z,67.40
2022-10-06T21:31:23.768Z,68.78
2022-10-06T21:33:52.905Z,70.02
2022-10-06T21:36:21.211Z,70.94
2022-10-06T21:38:50.717Z,69.73
2022-10-06T21:41:30.101Z,69.49
2022-10-06T21:43:58.748Z,69.53
2022-10-06T21:46:29.199Z,69.40
2022-10-06T21:48:58.679Z,68.57
2022-10-06T21:51:28.607Z,68.86
2022-10-06T21:53:57.587Z,71.02
2022-10-06T21:56:27.192Z,69.29
2022-10-06T21:58:56.354Z,68.73
2022-10-06T22:01:32.074Z,69.03
2022-10-06T22:04:01.447Z,69.79
2022-10-06T22:06:30.949Z,69.71
2022-10-06T22:08:59.914Z,70.04
2022-10-06T22:11:29.450Z,69.06
2022-10-06T22:13:59.790Z,68.86
2022-10-06T22:16:29.614Z,68.89
2022-10-06T22:18:58.684Z,68.52
2022-10-06T22:21:26.862Z,70.01
2022-10-06T22:23:56.529Z,71.03
2022-10-06T22:26:25.132Z,70.66
2022-10-06T22:28:54.459Z,70.45
2022-10-06T22:31:25.958Z,71.39
2022-10-06T22:33:56.231Z,70.72
2022-10-06T22:36:25.701Z,70.49
2022-10-06T22:38:54.427Z,70.35
2022-10-06T22:41:23.281Z,70.50
2022-10-06T22:43:57.907Z,70.35
2022-10-06T22:46:27.497Z,69.12
2022-10-06T22:48:55.931Z,69.78
2022-10-06T22:51:25.004Z,71.01
2022-10-06T22:53:57.870Z,70.74
2022-10-06T22:56:31.942Z,70.58
2022-10-06T22:59:00.918Z,70.73
2022-10-06T23:01:30.148Z,70.81
2022-10-06T23:03:59.829Z,71.31
2022-10-06T23:06:31.555Z,71.31
2022-10-06T23:09:00.198Z,71.33
2022-10-06T23:11:28.855Z,71.02
2022-10-06T23:13:57.543Z,70.50
2022-10-06T23:16:25.810Z,71.01
2022-10-06T23:18:55.532Z,70.87
2022-10-06T23:21:27.586Z,70.73
2022-10-06T23:23:58.749Z,70.89
2022-10-06T23:26:28.041Z,71.15
2022-10-06T23:28:57.966Z,70.66
2022-10-06T23:31:26.504Z,71.38
2022-10-06T23:33:55.336Z,71.50
2022-10-06T23:36:23.798Z,71.67
2022-10-06T23:38:52.295Z,70.98
2022-10-06T23:41:21.190Z,70.71
2022-10-06T23:43:49.886Z,70.95
2022-10-06T23:46:18.319Z,70.74
2022-10-06T23:48:46.780Z,70.04
2022-10-06T23:51:15.830Z,70.02
2022-10-06T23:53:44.314Z,69.68
2022-10-06T23:56:13.306Z,69.44
2022-10-06T23:58:42.734Z,69.22
